Terminal Aerodrome Forecast
Issued by NWS

Home | Current Version | Previous Version | Text Only | Print | Product List | Glossary On
Versions: 1 2 3 4 5 6 7 8 9 10 11 12 13 14 15
000
FTUS46 KSEW 222339
TAFOLM
TAF
KOLM 222339Z 2300/2324 22014G25KT P6SM -SHRA SCT025 BKN035
     FM230200 21008KT P6SM VCSH SCT020 BKN030
     FM230800 20005KT P6SM SCT010 BKN015
     FM231600 19004KT P6SM SCT020 BKN060
     FM232200 18012KT P6SM VCSH BKN060 OVC100=

USA.gov is the U.S. government's official web portal to all federal, state and local government web resources and services.